CheckWX is a tool to help pilots better visualize weather data.  It is not intended as a substitute for an official pre-flight weather briefing.

00:15:09 UTC

WSAP METAR
Paya Lebar Air Base Airport
Singapore
Current

15 mins ago

WSAP 050000Z 17004KT 9999 FEW017 BKN300 28/25 Q1009
Observed
Jul-5 @ 00:00 UTC
Wind
  • 170° at 4 KTS
Visibility
10,000+ meters
Flight Rules
VFR
Cloud Levels
  • Few at 1,700' AGL
  • Broken at 30,000' AGL
Temperature
28°C / 82°F
Dewpoint
25°C / 77°F
Humidity
84%
Altimeter
29.79" Hg
Pressure
1008.92 hPa
Previous

1 hour ago

WSAP 042300Z 11002KT 9999 FEW016 BKN300 28/25 Q1008
Observed
Jul-4 @ 23:00 UTC
Wind
  • 110° at 2 KTS
Visibility
10,000+ meters
Flight Rules
VFR
Cloud Levels
  • Few at 1,600' AGL
  • Broken at 30,000' AGL
Temperature
28°C / 82°F
Dewpoint
25°C / 77°F
Humidity
84%
Altimeter
29.76" Hg
Pressure
1007.92 hPa
Previous

2 hours ago

WSAP 042200Z 16003KT 9999 FEW016 SCT160 BKN300 28/25 Q1008
Observed
Jul-4 @ 22:00 UTC
Wind
  • 160° at 3 KTS
Visibility
10,000+ meters
Flight Rules
VFR
Cloud Levels
  • Few at 1,600' AGL
  • Scattered at 16,000' AGL
  • Broken at 30,000' AGL
Temperature
28°C / 82°F
Dewpoint
25°C / 77°F
Humidity
84%
Altimeter
29.76" Hg
Pressure
1007.92 hPa